Strona główna
METAR-TAF:

METAR-TAF

Lotnisko :

Port lotniczy Sauhadż-Mubarak

Sauhadż, Egipt

Szerokość geograficzna: 26-20-25N, Długość geograficzna: 31-44-20E, wysokość: 70 m

Aktualna obserwacja pogody

Raport powstał 1 godzina i 15 minut temu, godzina 02:00 UTC
Wiatr 4 kt od zachodnio-południowy zachód
Temperatura 16°C
Wilgotność 34%
Ciśnienie 1010 hPa
Widzialność 10 km lub więcej
Brak chmur poniżej 1500 m i brak chmur cumulonimbus

METAR: HESG 040200Z 25004KT CAVOK 16/00 Q1010 NOSIG

czas: 05:15 (03:15 UTC)

Prognoza

Raport powstał 4 godziny i 15 minut temu, godzina 23:00 UTC
Prognoza ważna od 04 godzina 00 UTC do 05 godzina 06 UTC
Wiatr 10 kt od zachód w porywach dochodzący do 20 kt
Widzialność 10 km lub więcej
Brak chmur poniżej 1500 m i brak chmur cumulonimbus

TAF: HESG 032300Z 0400/0506 27010G20KT CAVOK

Obserwacja i prognoza pogody dla ponad 4000 lotnisk (raport METAR i TAF).

Dostępne stacje oznaczono żółtymi i czerwonymi punktami na mapie.

Najedź kursorem aby zobaczyć nazwę stacji.

Kliknij aby zobaczyć obserwacje i prognozy pogody.

Aby zmienić mapę: kliknij na zielony przycisk z czarnym krzyżykiem, aby powiększyć; na zielony przycisk z myślnikiem, aby pomniejszyć; na zielone strzałki, aby przejść do map sąsiednich.


METAR-TAF: